createdAt,value
2022-10-14T00:01:10.747Z,10.13
2022-10-14T00:03:39.187Z,11.20
2022-10-14T00:06:08.499Z,10.63
2022-10-14T00:08:35.619Z,10.13
2022-10-14T00:11:10.402Z,9.97
2022-10-14T00:13:37.457Z,11.63
2022-10-14T00:16:05.647Z,10.47
2022-10-14T00:18:33.039Z,10.70
2022-10-14T00:21:01.762Z,11.20
2022-10-14T00:23:28.669Z,10.73
2022-10-14T00:25:55.404Z,9.73
2022-10-14T00:28:22.542Z,10.13
2022-10-14T00:30:56.769Z,9.67
2022-10-14T00:33:24.129Z,9.00
2022-10-14T00:35:58.683Z,10.53
2022-10-14T00:38:25.806Z,9.73
2022-10-14T00:40:53.332Z,9.77
2022-10-14T00:43:21.020Z,9.93
2022-10-14T00:45:48.274Z,10.27
2022-10-14T00:48:15.676Z,11.10
2022-10-14T00:50:45.288Z,10.80
2022-10-14T00:53:13.972Z,9.67
2022-10-14T00:55:42.671Z,10.03
2022-10-14T00:58:10.387Z,9.73
2022-10-14T01:00:38.178Z,9.33
2022-10-14T01:03:17.880Z,10.00
2022-10-14T01:06:02.135Z,9.57
2022-10-14T01:08:52.180Z,10.17
2022-10-14T01:11:34.307Z,9.73
2022-10-14T01:14:33.173Z,9.27
2022-10-14T01:17:27.812Z,8.87
2022-10-14T01:20:48.557Z,9.23
2022-10-14T01:23:29.864Z,9.63
2022-10-14T01:26:21.301Z,9.93
2022-10-14T01:29:09.537Z,8.73
2022-10-14T01:31:44.075Z,10.37
2022-10-14T01:34:13.578Z,10.00
2022-10-14T01:36:50.238Z,9.87
2022-10-14T01:39:25.139Z,10.90
2022-10-14T01:41:58.640Z,9.40
2022-10-14T01:44:28.112Z,9.30
2022-10-14T01:46:56.156Z,9.90
2022-10-14T01:49:32.644Z,9.43
2022-10-14T01:52:19.992Z,9.27
2022-10-14T01:54:51.132Z,9.90
2022-10-14T01:57:23.528Z,8.10
2022-10-14T01:59:52.763Z,8.60
2022-10-14T02:02:19.918Z,8.37
2022-10-14T02:04:47.283Z,9.27
2022-10-14T02:07:23.589Z,8.13
2022-10-14T02:09:56.121Z,8.97
2022-10-14T02:12:53.593Z,8.23
2022-10-14T02:15:42.159Z,8.70
2022-10-14T02:18:14.294Z,8.53
2022-10-14T02:20:48.104Z,8.83
2022-10-14T02:23:19.782Z,8.80
2022-10-14T02:25:49.225Z,7.63
2022-10-14T02:28:19.332Z,8.33
2022-10-14T02:30:51.234Z,7.87
2022-10-14T02:33:20.829Z,7.77
2022-10-14T02:35:49.326Z,8.50
2022-10-14T02:38:16.779Z,8.43
2022-10-14T02:40:46.959Z,8.70
2022-10-14T02:43:13.778Z,8.50
2022-10-14T02:45:42.374Z,9.10
2022-10-14T02:48:10.393Z,7.83
2022-10-14T02:50:37.788Z,6.70
2022-10-14T02:53:04.828Z,7.87
2022-10-14T02:55:31.950Z,7.53
2022-10-14T02:57:58.564Z,7.93
2022-10-14T03:00:25.761Z,7.43
2022-10-14T03:02:52.948Z,8.00
2022-10-14T03:05:19.599Z,7.93
2022-10-14T03:07:46.674Z,7.33
2022-10-14T03:10:13.791Z,7.80
2022-10-14T03:12:40.873Z,8.60
2022-10-14T03:15:08.302Z,7.67
2022-10-14T03:17:36.014Z,8.57
2022-10-14T03:20:04.508Z,8.47
2022-10-14T03:22:31.269Z,7.27
2022-10-14T03:24:58.443Z,7.57
2022-10-14T03:27:25.631Z,7.70
2022-10-14T03:29:52.693Z,7.50
2022-10-14T03:32:19.836Z,6.53
2022-10-14T03:34:46.722Z,7.87
2022-10-14T03:37:13.359Z,7.30
2022-10-14T03:39:40.042Z,6.87
2022-10-14T03:42:07.092Z,6.17
2022-10-14T03:44:33.714Z,6.60
2022-10-14T03:47:00.734Z,6.70
2022-10-14T03:49:27.398Z,7.03
2022-10-14T03:51:54.073Z,6.97
2022-10-14T03:54:20.708Z,6.93
2022-10-14T03:56:47.779Z,6.80
2022-10-14T03:59:14.480Z,7.17
2022-10-14T04:01:41.555Z,6.90
2022-10-14T04:04:08.741Z,7.40
2022-10-14T04:06:36.608Z,6.63
2022-10-14T04:09:04.442Z,7.50
2022-10-14T04:11:31.118Z,7.77
2022-10-14T04:13:59.227Z,7.70
2022-10-14T04:16:27.044Z,7.03
2022-10-14T04:18:54.258Z,7.57
2022-10-14T04:21:21.295Z,6.97
2022-10-14T04:23:47.986Z,7.10
2022-10-14T04:26:15.120Z,7.10
2022-10-14T04:28:41.797Z,8.03
2022-10-14T04:31:08.969Z,7.40
2022-10-14T04:33:36.515Z,6.23
2022-10-14T04:36:05.900Z,6.63
2022-10-14T04:38:33.523Z,6.83
2022-10-14T04:41:00.271Z,6.73
2022-10-14T04:43:27.309Z,6.20
2022-10-14T04:45:54.482Z,7.47
2022-10-14T04:48:21.587Z,6.93
2022-10-14T04:50:51.965Z,6.63
2022-10-14T04:53:22.162Z,7.50
2022-10-14T04:55:49.598Z,7.47
2022-10-14T04:58:17.218Z,8.00
2022-10-14T05:00:44.312Z,7.57
2022-10-14T05:03:11.017Z,7.13
2022-10-14T05:05:38.072Z,8.67
2022-10-14T05:08:05.042Z,7.70
2022-10-14T05:10:32.328Z,7.43
2022-10-14T05:12:58.966Z,8.50
2022-10-14T05:15:25.632Z,7.13
2022-10-14T05:17:52.691Z,7.70
2022-10-14T05:20:19.318Z,6.27
2022-10-14T05:22:46.094Z,6.93
2022-10-14T05:25:13.206Z,7.57
2022-10-14T05:27:40.130Z,7.20
2022-10-14T05:30:07.485Z,7.77
2022-10-14T05:32:34.121Z,7.50
2022-10-14T05:35:00.765Z,7.20
2022-10-14T05:37:27.964Z,8.07
2022-10-14T05:39:55.201Z,6.77
2022-10-14T05:42:22.698Z,7.00
2022-10-14T05:44:50.032Z,6.97
2022-10-14T05:47:16.816Z,7.27
2022-10-14T05:49:43.853Z,7.40
2022-10-14T05:52:10.490Z,6.07
2022-10-14T05:54:37.524Z,6.63
2022-10-14T05:57:04.431Z,5.80
2022-10-14T05:59:33.256Z,6.70
2022-10-14T06:02:00.303Z,6.60
2022-10-14T06:04:27.177Z,6.10
2022-10-14T06:06:53.842Z,6.37
2022-10-14T06:09:20.928Z,5.87
2022-10-14T06:11:48.201Z,5.70
2022-10-14T06:14:15.369Z,5.70
2022-10-14T06:16:42.021Z,5.83
2022-10-14T06:19:09.095Z,5.87
2022-10-14T06:21:42.492Z,5.30
2022-10-14T06:24:09.572Z,5.83
2022-10-14T06:26:36.526Z,5.33
2022-10-14T06:29:03.719Z,5.93
2022-10-14T06:31:32.417Z,5.20
2022-10-14T06:34:00.443Z,5.23
2022-10-14T06:36:27.094Z,5.80
2022-10-14T06:38:54.517Z,5.67
2022-10-14T06:41:21.146Z,5.80
2022-10-14T06:43:48.237Z,5.97
2022-10-14T06:46:15.322Z,5.80
2022-10-14T06:48:43.979Z,6.07
2022-10-14T06:51:13.587Z,6.00
2022-10-14T06:53:40.622Z,6.13
2022-10-14T06:56:07.946Z,5.70
2022-10-14T06:58:35.014Z,5.70
2022-10-14T07:01:06.317Z,5.50
2022-10-14T07:03:38.792Z,6.57
2022-10-14T07:06:06.828Z,5.60
2022-10-14T07:08:33.506Z,6.30
2022-10-14T07:11:00.433Z,7.17
2022-10-14T07:13:27.609Z,6.03
2022-10-14T07:15:54.259Z,6.00
2022-10-14T07:18:21.411Z,6.73
2022-10-14T07:20:48.624Z,6.23
2022-10-14T07:23:15.732Z,6.50
2022-10-14T07:25:42.499Z,6.57
2022-10-14T07:28:09.186Z,5.50
2022-10-14T07:30:36.162Z,6.40
2022-10-14T07:33:02.971Z,6.07
2022-10-14T07:35:30.160Z,6.67
2022-10-14T07:37:59.466Z,6.07
2022-10-14T07:40:26.714Z,5.60
2022-10-14T07:42:53.416Z,5.40
2022-10-14T07:45:21.203Z,4.73
2022-10-14T07:47:49.683Z,5.90
2022-10-14T07:50:17.084Z,6.27
2022-10-14T07:52:43.796Z,5.13
2022-10-14T07:55:10.865Z,5.57
2022-10-14T07:57:37.571Z,6.10
2022-10-14T08:00:05.092Z,4.60
2022-10-14T08:02:32.123Z,5.53
2022-10-14T08:05:18.993Z,5.40
2022-10-14T08:07:45.814Z,5.57
2022-10-14T08:10:12.572Z,5.50
2022-10-14T08:12:40.108Z,5.40
2022-10-14T08:15:07.766Z,5.43
2022-10-14T08:17:34.380Z,5.60
2022-10-14T08:20:01.430Z,5.40
2022-10-14T08:22:28.056Z,4.97
2022-10-14T08:24:54.954Z,5.20
2022-10-14T08:27:22.022Z,5.57
2022-10-14T08:29:49.060Z,4.90
2022-10-14T08:32:16.784Z,4.43
2022-10-14T08:34:43.466Z,4.97
2022-10-14T08:37:11.923Z,4.67
2022-10-14T08:39:39.005Z,5.03
2022-10-14T08:42:25.354Z,4.93
2022-10-14T08:44:56.739Z,5.13
2022-10-14T08:47:39.722Z,5.13
2022-10-14T08:50:29.176Z,4.90
2022-10-14T08:53:13.561Z,5.23
2022-10-14T08:55:41.506Z,5.53
2022-10-14T08:58:28.421Z,4.73
2022-10-14T09:00:56.193Z,5.57
2022-10-14T09:03:33.206Z,5.50
2022-10-14T09:06:11.880Z,5.13
2022-10-14T09:08:43.045Z,5.70
2022-10-14T09:11:16.484Z,5.47
2022-10-14T09:13:46.918Z,5.60
2022-10-14T09:16:22.123Z,5.33
2022-10-14T09:18:50.997Z,5.10
2022-10-14T09:21:40.330Z,5.07
2022-10-14T09:24:28.147Z,5.47
2022-10-14T09:26:58.249Z,5.43
2022-10-14T09:29:29.163Z,4.60
2022-10-14T09:32:06.850Z,4.90
2022-10-14T09:34:48.226Z,4.90
2022-10-14T09:37:35.894Z,4.73
2022-10-14T09:40:05.216Z,4.83
2022-10-14T09:43:08.294Z,4.70
2022-10-14T09:45:48.905Z,4.67
2022-10-14T09:48:23.391Z,5.00
2022-10-14T09:50:53.968Z,5.77
2022-10-14T09:53:26.406Z,5.17
2022-10-14T09:56:01.398Z,5.00
2022-10-14T09:58:57.423Z,5.50
2022-10-14T10:01:29.611Z,5.77
2022-10-14T10:03:57.051Z,5.70
2022-10-14T10:06:26.422Z,5.27
2022-10-14T10:08:53.455Z,5.57
2022-10-14T10:11:33.427Z,5.30
2022-10-14T10:14:00.515Z,5.30
2022-10-14T10:16:32.751Z,5.30
2022-10-14T10:19:19.360Z,5.33
2022-10-14T10:21:47.532Z,5.30
2022-10-14T10:24:26.013Z,5.70
2022-10-14T10:26:55.365Z,5.90
2022-10-14T10:29:35.384Z,5.67
2022-10-14T10:32:12.025Z,5.43
2022-10-14T10:34:39.101Z,6.67
2022-10-14T10:37:10.521Z,5.80
2022-10-14T10:39:38.078Z,6.40
2022-10-14T10:42:13.920Z,6.33
2022-10-14T10:44:49.523Z,6.20
2022-10-14T10:47:37.827Z,6.10
2022-10-14T10:50:20.528Z,6.53
2022-10-14T10:53:13.815Z,6.30
2022-10-14T10:55:59.300Z,6.53
2022-10-14T10:59:15.521Z,5.90
2022-10-14T11:02:00.296Z,6.70
2022-10-14T11:04:32.742Z,6.73
2022-10-14T11:07:38.670Z,6.80
2022-10-14T11:10:35.945Z,7.23
2022-10-14T11:13:40.082Z,7.40
2022-10-14T11:16:07.577Z,7.10
2022-10-14T11:18:50.080Z,7.03
2022-10-14T11:21:37.948Z,7.43
2022-10-14T11:24:36.698Z,7.63
2022-10-14T11:27:44.098Z,7.00
2022-10-14T11:30:37.505Z,7.63
2022-10-14T11:33:22.069Z,7.50
2022-10-14T11:36:00.699Z,7.03
2022-10-14T11:38:36.333Z,8.23
2022-10-14T11:41:18.060Z,7.53
2022-10-14T11:44:00.901Z,8.03
2022-10-14T11:46:33.006Z,8.53
2022-10-14T11:49:05.460Z,9.00
2022-10-14T11:51:42.698Z,8.40
2022-10-14T11:54:12.631Z,9.00
2022-10-14T11:57:02.746Z,8.63
2022-10-14T12:00:08.713Z,8.43
2022-10-14T12:03:12.497Z,8.23
2022-10-14T12:06:04.118Z,8.73
2022-10-14T12:08:56.565Z,8.30
2022-10-14T12:11:49.952Z,8.17
2022-10-14T12:14:36.701Z,8.53
2022-10-14T12:17:30.035Z,8.03
2022-10-14T12:19:59.131Z,8.20
2022-10-14T12:22:29.189Z,8.37
2022-10-14T12:24:59.850Z,9.00
2022-10-14T12:27:28.506Z,8.27
2022-10-14T12:29:58.509Z,8.80
2022-10-14T12:32:27.361Z,8.20
2022-10-14T12:34:58.070Z,8.00
2022-10-14T12:37:28.794Z,7.97
2022-10-14T12:40:05.844Z,7.93
2022-10-14T12:42:41.241Z,7.80
2022-10-14T12:45:26.376Z,7.73
2022-10-14T12:48:08.422Z,8.07
2022-10-14T12:50:38.166Z,8.17
2022-10-14T12:53:15.234Z,8.13
2022-10-14T12:55:52.726Z,7.50
2022-10-14T12:58:42.335Z,7.30
2022-10-14T13:01:23.472Z,7.53
2022-10-14T13:06:36.798Z,6.67
2022-10-14T13:09:31.146Z,6.83
2022-10-14T13:11:57.762Z,6.60
2022-10-14T13:14:25.877Z,6.80
2022-10-14T13:16:52.528Z,7.13
2022-10-14T13:19:34.514Z,7.03
2022-10-14T13:22:03.149Z,7.57
2022-10-14T13:24:33.804Z,7.00
2022-10-14T13:27:11.151Z,6.87
2022-10-14T13:29:50.071Z,6.33
2022-10-14T13:32:22.720Z,6.10
2022-10-14T13:35:12.261Z,6.20
2022-10-14T13:37:46.255Z,6.73
2022-10-14T13:40:31.675Z,6.40
2022-10-14T13:43:00.823Z,5.50
2022-10-14T13:45:38.272Z,6.13
2022-10-14T13:48:32.079Z,5.77
2022-10-14T13:51:37.772Z,5.93
2022-10-14T13:54:18.575Z,6.20
2022-10-14T13:57:35.016Z,5.63
2022-10-14T14:00:22.513Z,5.00
2022-10-14T14:02:35.478Z,5.80
2022-10-14T14:05:02.330Z,6.13
2022-10-14T14:08:14.635Z,6.10
2022-10-14T14:10:25.080Z,6.37
2022-10-14T14:12:52.364Z,5.77
2022-10-14T14:15:28.840Z,5.93
2022-10-14T14:17:55.977Z,5.20
2022-10-14T14:20:26.277Z,5.90
2022-10-14T14:22:53.341Z,5.37
2022-10-14T14:25:40.500Z,6.13
2022-10-14T14:28:13.838Z,5.77
2022-10-14T14:30:40.620Z,5.80
2022-10-14T14:33:18.029Z,6.20
2022-10-14T14:35:54.924Z,5.43
2022-10-14T14:38:55.743Z,5.70
2022-10-14T14:41:25.595Z,6.73
2022-10-14T14:44:24.094Z,6.07
2022-10-14T14:46:45.706Z,6.03
2022-10-14T14:49:22.466Z,6.17
2022-10-14T14:51:49.925Z,6.23
2022-10-14T14:54:21.886Z,5.93
2022-10-14T14:57:04.298Z,5.93
2022-10-14T14:59:43.369Z,6.07
2022-10-14T15:02:20.294Z,6.00
2022-10-14T15:04:48.359Z,7.07
2022-10-14T15:07:21.802Z,6.23
2022-10-14T15:09:55.043Z,5.93
2022-10-14T15:12:42.507Z,6.10
2022-10-14T15:15:35.244Z,5.63
2022-10-14T15:18:21.943Z,6.00
2022-10-14T15:20:49.460Z,5.93
2022-10-14T15:23:43.014Z,6.13
2022-10-14T15:26:46.242Z,6.80
2022-10-14T15:32:13.896Z,6.53
2022-10-14T15:34:41.166Z,6.20
2022-10-14T15:37:13.033Z,6.00
2022-10-14T15:39:40.153Z,6.07
2022-10-14T15:42:13.714Z,5.43
2022-10-14T15:44:40.341Z,6.20
2022-10-14T15:47:21.087Z,6.67
2022-10-14T15:49:47.864Z,6.13
2022-10-14T15:52:18.472Z,5.90
2022-10-14T15:54:48.810Z,6.10
2022-10-14T15:57:16.875Z,6.43
2022-10-14T15:59:44.202Z,7.57
2022-10-14T16:02:19.874Z,9.03
2022-10-14T16:05:07.368Z,6.60
2022-10-14T16:07:33.444Z,6.73
2022-10-14T16:10:00.570Z,7.20
2022-10-14T16:12:27.599Z,7.07
2022-10-14T16:14:54.821Z,7.07
2022-10-14T16:17:21.796Z,7.27
2022-10-14T16:19:49.011Z,6.87
2022-10-14T16:22:16.110Z,7.17
2022-10-14T16:24:43.208Z,6.37
2022-10-14T16:27:09.963Z,6.67
2022-10-14T16:29:37.034Z,7.30
2022-10-14T16:32:03.767Z,6.10
2022-10-14T16:34:30.534Z,6.20
2022-10-14T16:36:57.626Z,5.90
2022-10-14T16:39:24.291Z,7.40
2022-10-14T16:41:51.036Z,6.27
2022-10-14T16:44:27.269Z,6.77
2022-10-14T16:47:13.453Z,5.60
2022-10-14T16:49:40.548Z,7.67
2022-10-14T16:52:08.557Z,8.70
2022-10-14T16:54:35.945Z,6.67
2022-10-14T16:57:03.153Z,6.47
2022-10-14T16:59:31.262Z,6.27
2022-10-14T17:01:58.741Z,5.77
2022-10-14T17:04:25.860Z,6.50
2022-10-14T17:06:53.823Z,5.57
2022-10-14T17:09:20.827Z,4.90
2022-10-14T17:11:49.707Z,5.50
2022-10-14T17:14:18.625Z,4.90
2022-10-14T17:16:48.144Z,4.97
2022-10-14T17:19:15.349Z,5.00
2022-10-14T17:21:42.137Z,4.73
2022-10-14T17:24:09.390Z,5.27
2022-10-14T17:26:36.111Z,5.00
2022-10-14T17:29:03.524Z,5.60
2022-10-14T17:31:30.650Z,4.80
2022-10-14T17:33:59.279Z,5.73
2022-10-14T17:36:28.129Z,5.33
2022-10-14T17:38:57.205Z,5.23
2022-10-14T17:41:26.398Z,6.17
2022-10-14T17:43:54.007Z,6.13
2022-10-14T17:46:23.457Z,5.40
2022-10-14T17:48:52.143Z,6.23
2022-10-14T17:51:22.851Z,5.93
2022-10-14T17:53:51.748Z,7.83
2022-10-14T17:56:18.807Z,5.93
2022-10-14T17:58:45.490Z,7.17
2022-10-14T18:01:15.263Z,5.70
2022-10-14T18:03:43.379Z,5.47
2022-10-14T18:06:21.609Z,6.10
2022-10-14T18:08:53.702Z,7.43
2022-10-14T18:11:21.644Z,7.30
2022-10-14T18:13:58.054Z,7.37
2022-10-14T18:16:26.444Z,6.30
2022-10-14T18:18:55.868Z,8.90
2022-10-14T18:21:22.531Z,7.57
2022-10-14T18:23:49.666Z,7.20
2022-10-14T18:26:18.344Z,7.60
2022-10-14T18:28:47.897Z,6.33
2022-10-14T18:31:17.080Z,7.00
2022-10-14T18:33:44.623Z,5.87
2022-10-14T18:36:14.139Z,6.37
2022-10-14T18:38:41.286Z,7.40
2022-10-14T18:41:11.780Z,5.90
2022-10-14T18:43:38.970Z,5.00
2022-10-14T18:46:16.240Z,5.10
2022-10-14T18:48:46.670Z,5.00
2022-10-14T18:51:15.173Z,5.40
2022-10-14T18:53:45.012Z,5.10
2022-10-14T18:56:16.818Z,4.70
2022-10-14T18:58:45.245Z,5.60
2022-10-14T19:01:12.723Z,5.13
2022-10-14T19:03:42.271Z,5.33
2022-10-14T19:06:11.433Z,5.30
2022-10-14T19:08:40.104Z,5.40
2022-10-14T19:11:07.225Z,5.43
2022-10-14T19:13:34.347Z,4.60
2022-10-14T19:16:15.362Z,4.93
2022-10-14T19:18:42.047Z,4.50
2022-10-14T19:21:14.699Z,4.90
2022-10-14T19:23:45.004Z,4.43
2022-10-14T19:28:48.318Z,4.30
2022-10-14T19:31:17.735Z,5.73
2022-10-14T19:33:45.473Z,5.23
2022-10-14T19:36:15.409Z,4.80
2022-10-14T19:38:58.431Z,5.60
2022-10-14T19:41:27.029Z,4.90
2022-10-14T19:43:54.148Z,4.87
2022-10-14T19:46:27.315Z,4.20
2022-10-14T19:49:02.360Z,3.90
2022-10-14T19:51:30.509Z,4.07
2022-10-14T19:53:58.186Z,4.40
2022-10-14T19:56:26.229Z,3.80
2022-10-14T19:58:54.867Z,3.73
2022-10-14T20:01:24.065Z,3.93
2022-10-14T20:03:51.457Z,3.97
2022-10-14T20:06:18.599Z,3.83
2022-10-14T20:08:46.080Z,3.90
2022-10-14T20:11:15.253Z,3.67
2022-10-14T20:13:43.656Z,3.53
2022-10-14T20:16:11.720Z,3.83
2022-10-14T20:18:38.454Z,3.60
2022-10-14T20:21:07.122Z,3.37
2022-10-14T20:23:35.333Z,3.67
2022-10-14T20:26:05.144Z,3.67
2022-10-14T20:28:34.372Z,3.67
2022-10-14T20:31:01.077Z,4.53
2022-10-14T20:33:31.511Z,4.03
2022-10-14T20:36:03.321Z,4.00
2022-10-14T20:38:30.047Z,4.07
2022-10-14T20:41:06.448Z,4.33
2022-10-14T20:43:33.190Z,4.27
2022-10-14T20:45:59.911Z,4.17
2022-10-14T20:48:26.644Z,4.50
2022-10-14T20:50:53.764Z,4.10
2022-10-14T20:53:20.818Z,4.43
2022-10-14T20:55:47.906Z,4.47
2022-10-14T20:58:15.017Z,4.20
2022-10-14T21:00:42.075Z,4.50
2022-10-14T21:03:09.145Z,4.60
2022-10-14T21:05:37.461Z,3.87
2022-10-14T21:08:05.104Z,4.27
2022-10-14T21:10:32.168Z,4.23
2022-10-14T21:12:58.895Z,4.30
2022-10-14T21:15:26.928Z,4.07
2022-10-14T21:17:53.688Z,4.83
2022-10-14T21:20:20.783Z,5.07
2022-10-14T21:22:47.612Z,4.97
2022-10-14T21:25:14.844Z,5.03
2022-10-14T21:27:41.523Z,5.30
2022-10-14T21:30:08.917Z,5.00
2022-10-14T21:32:35.610Z,5.10
2022-10-14T21:35:02.668Z,5.40
2022-10-14T21:37:29.345Z,4.93
2022-10-14T21:39:55.999Z,5.13
2022-10-14T21:42:23.054Z,4.90
2022-10-14T21:44:49.797Z,5.50
2022-10-14T21:47:16.902Z,5.20
2022-10-14T21:49:44.048Z,5.20
2022-10-14T21:52:10.824Z,5.27
2022-10-14T21:54:37.948Z,5.03
2022-10-14T21:57:04.616Z,5.17
2022-10-14T21:59:31.241Z,5.03
2022-10-14T22:01:59.040Z,4.93
2022-10-14T22:04:26.947Z,4.20
2022-10-14T22:06:53.590Z,4.10
2022-10-14T22:09:20.643Z,3.77
2022-10-14T22:11:47.542Z,4.60
2022-10-14T22:14:19.016Z,3.67
2022-10-14T22:16:47.081Z,3.23
2022-10-14T22:19:14.123Z,3.60
2022-10-14T22:21:42.328Z,3.63
2022-10-14T22:24:10.253Z,4.17
2022-10-14T22:26:38.052Z,3.63
2022-10-14T22:29:12.878Z,3.30
2022-10-14T22:31:40.446Z,3.37
2022-10-14T22:34:08.447Z,4.50
2022-10-14T22:36:35.873Z,3.97
2022-10-14T22:39:05.967Z,3.80
2022-10-14T22:41:35.652Z,3.80
2022-10-14T22:44:04.767Z,3.67
2022-10-14T22:46:33.913Z,3.50
2022-10-14T22:49:01.939Z,3.63
2022-10-14T22:51:31.298Z,4.03
2022-10-14T22:53:58.633Z,3.63
2022-10-14T22:56:27.193Z,3.90
2022-10-14T22:59:00.003Z,3.80
2022-10-14T23:01:27.970Z,4.40
2022-10-14T23:03:56.560Z,4.10
2022-10-14T23:06:23.787Z,4.13
2022-10-14T23:08:51.077Z,4.07
2022-10-14T23:11:20.510Z,4.37
2022-10-14T23:13:47.485Z,3.93
2022-10-14T23:16:17.496Z,4.10
2022-10-14T23:18:45.221Z,4.00
2022-10-14T23:21:19.234Z,4.30
2022-10-14T23:23:47.149Z,4.00
2022-10-14T23:26:17.107Z,4.10
2022-10-14T23:28:48.721Z,3.83
2022-10-14T23:31:17.715Z,3.90
2022-10-14T23:33:44.863Z,4.30
2022-10-14T23:36:13.683Z,3.60
2022-10-14T23:38:40.962Z,3.83
2022-10-14T23:41:09.526Z,3.63
2022-10-14T23:43:36.687Z,4.03
2022-10-14T23:46:04.268Z,3.93
2022-10-14T23:48:31.368Z,3.87
2022-10-14T23:50:58.463Z,3.67
2022-10-14T23:53:28.410Z,3.83
2022-10-14T23:55:56.096Z,3.37
2022-10-14T23:58:24.107Z,3.90
